Terminal Aerodrome Forecast
Issued by NWS Mt. Holly, NJ

Home | Current Version | Previous Version | Text Only | Print | Product List | Glossary On
Versions: 1 2 3 4 5 6 7 8 9 10 11 12 13 14 15 16 17 18 19 20 21 22
782
FTUS41 KPHI 301128
TAFILG
TAF
KILG 301128Z 3012/3112 VRB03KT P6SM SCT010 BKN080
      TEMPO 3012/3013 OVC010
     FM301300 16008KT P6SM BKN060
      TEMPO 3015/3019 SHRA OVC035
     FM301900 16008KT P6SM SHRA VCTS OVC035CB
     FM310100 14006KT 5SM SHRA BR OVC025
     FM310400 12006KT 3SM SHRA BR OVC010=

USA.gov is the U.S. government's official web portal to all federal, state and local government web resources and services.